createdAt,value
2023-02-19T00:01:56.140Z,8.60
2023-02-19T00:04:26.124Z,8.60
2023-02-19T00:06:54.519Z,8.60
2023-02-19T00:09:22.614Z,8.50
2023-02-19T00:11:50.995Z,8.40
2023-02-19T00:14:22.439Z,8.50
2023-02-19T00:16:50.675Z,8.30
2023-02-19T00:19:20.502Z,8.10
2023-02-19T00:21:52.388Z,8.00
2023-02-19T00:24:21.830Z,8.00
2023-02-19T00:26:50.240Z,8.10
2023-02-19T00:29:21.350Z,8.20
2023-02-19T00:31:49.535Z,8.30
2023-02-19T00:34:17.809Z,8.20
2023-02-19T00:36:46.044Z,8.20
2023-02-19T00:39:18.844Z,8.10
2023-02-19T00:41:47.170Z,8.10
2023-02-19T00:44:16.471Z,8.10
2023-02-19T00:46:46.500Z,8.00
2023-02-19T00:49:17.713Z,7.90
2023-02-19T00:51:46.319Z,7.80
2023-02-19T00:54:16.851Z,7.80
2023-02-19T00:56:45.036Z,7.80
2023-02-19T00:59:13.733Z,7.90
2023-02-19T01:01:42.110Z,7.90
2023-02-19T01:04:10.582Z,7.70
2023-02-19T01:09:26.176Z,7.80
2023-02-19T01:11:54.652Z,8.00
2023-02-19T01:14:22.817Z,8.00
2023-02-19T01:16:50.959Z,7.90
2023-02-19T01:19:19.070Z,7.90
2023-02-19T01:21:47.162Z,7.90
2023-02-19T01:24:17.097Z,8.00
2023-02-19T01:26:46.849Z,8.00
2023-02-19T01:29:15.271Z,8.00
2023-02-19T01:31:43.459Z,7.80
2023-02-19T01:34:13.090Z,7.60
2023-02-19T01:36:41.740Z,7.60
2023-02-19T01:39:10.229Z,7.40
2023-02-19T01:41:41.422Z,7.30
2023-02-19T01:44:49.523Z,7.20
2023-02-19T01:47:19.420Z,7.40
2023-02-19T01:49:51.868Z,7.50
2023-02-19T01:52:26.016Z,7.60
2023-02-19T01:54:55.966Z,7.50
2023-02-19T01:57:29.982Z,7.50
2023-02-19T02:00:05.684Z,7.70
2023-02-19T02:02:33.890Z,7.80
2023-02-19T02:05:03.395Z,7.70
2023-02-19T02:07:49.234Z,7.70
2023-02-19T02:10:23.969Z,7.70
2023-02-19T02:12:57.383Z,7.80
2023-02-19T02:15:30.771Z,7.80
2023-02-19T02:18:07.883Z,7.80
2023-02-19T02:20:53.107Z,7.90
2023-02-19T02:23:31.458Z,7.90
2023-02-19T02:26:15.014Z,7.80
2023-02-19T02:29:17.544Z,7.80
2023-02-19T02:31:53.265Z,7.70
2023-02-19T02:34:28.905Z,7.70
2023-02-19T02:36:58.363Z,7.60
2023-02-19T02:39:29.172Z,7.50
2023-02-19T02:42:17.951Z,7.40
2023-02-19T02:45:07.645Z,7.20
2023-02-19T02:47:43.188Z,7.30
2023-02-19T02:50:18.063Z,7.30
2023-02-19T02:53:07.497Z,7.30
2023-02-19T02:55:42.801Z,7.00
2023-02-19T02:58:12.088Z,6.90
2023-02-19T03:00:59.757Z,6.80
2023-02-19T03:03:32.540Z,6.70
2023-02-19T03:06:05.672Z,6.50
2023-02-19T03:08:39.547Z,6.30
2023-02-19T03:11:28.092Z,6.40
2023-02-19T03:14:20.048Z,6.30
2023-02-19T03:17:06.995Z,6.20
2023-02-19T03:19:43.270Z,6.00
2023-02-19T03:22:15.875Z,5.90
2023-02-19T03:25:07.844Z,5.70
2023-02-19T03:27:37.404Z,5.80
2023-02-19T03:30:12.810Z,5.90
2023-02-19T03:32:45.317Z,5.90
2023-02-19T03:35:18.500Z,6.10
2023-02-19T03:37:52.061Z,6.10
2023-02-19T03:40:20.828Z,5.90
2023-02-19T03:42:59.913Z,5.80
2023-02-19T03:45:49.638Z,5.80
2023-02-19T03:48:30.028Z,5.50
2023-02-19T03:51:09.836Z,5.60
2023-02-19T03:53:49.056Z,5.70
2023-02-19T03:56:23.999Z,5.80
2023-02-19T03:58:57.575Z,5.90
2023-02-19T04:01:31.401Z,5.70
2023-02-19T04:04:05.694Z,5.70
2023-02-19T04:06:37.048Z,6.00
2023-02-19T04:09:10.316Z,6.10
2023-02-19T04:11:40.221Z,6.00
2023-02-19T04:14:12.350Z,5.90
2023-02-19T04:16:43.833Z,5.70
2023-02-19T04:19:14.610Z,5.70
2023-02-19T04:21:46.448Z,5.80
2023-02-19T04:24:20.439Z,5.70
2023-02-19T04:26:48.922Z,5.60
2023-02-19T04:29:17.087Z,5.10
2023-02-19T04:31:45.677Z,4.90
2023-02-19T04:34:13.793Z,4.70
2023-02-19T04:36:43.308Z,4.90
2023-02-19T04:39:11.731Z,4.80
2023-02-19T04:41:40.166Z,5.10
2023-02-19T04:44:08.645Z,5.10
2023-02-19T04:46:36.860Z,5.10
2023-02-19T04:49:05.290Z,4.80
2023-02-19T04:51:33.752Z,4.70
2023-02-19T04:54:03.226Z,4.70
2023-02-19T04:56:31.364Z,4.90
2023-02-19T04:59:00.093Z,5.00
2023-02-19T05:01:28.351Z,4.90
2023-02-19T05:03:56.759Z,4.70
2023-02-19T05:06:24.889Z,4.70
2023-02-19T05:08:53.280Z,4.50
2023-02-19T05:11:23.793Z,4.70
2023-02-19T05:13:51.958Z,4.80
2023-02-19T05:16:20.170Z,4.70
2023-02-19T05:18:48.327Z,4.70
2023-02-19T05:21:17.520Z,4.60
2023-02-19T05:23:45.802Z,4.70
2023-02-19T05:26:17.896Z,4.60
2023-02-19T05:28:48.866Z,4.60
2023-02-19T05:31:18.289Z,4.60
2023-02-19T05:33:50.226Z,4.50
2023-02-19T05:36:19.321Z,4.60
2023-02-19T05:38:48.254Z,4.60
2023-02-19T05:41:17.842Z,4.70
2023-02-19T05:43:50.033Z,4.70
2023-02-19T05:46:19.976Z,4.60
2023-02-19T05:48:48.894Z,4.40
2023-02-19T05:51:19.248Z,4.50
2023-02-19T05:53:47.439Z,4.60
2023-02-19T05:56:28.403Z,4.60
2023-02-19T05:58:58.757Z,4.50
2023-02-19T06:01:29.365Z,4.60
2023-02-19T06:03:59.338Z,4.50
2023-02-19T06:06:28.471Z,4.50
2023-02-19T06:08:57.188Z,4.50
2023-02-19T06:11:25.644Z,4.60
2023-02-19T06:13:53.800Z,4.60
2023-02-19T06:16:23.387Z,4.70
2023-02-19T06:18:51.725Z,4.60
2023-02-19T06:21:21.002Z,4.70
2023-02-19T06:23:49.155Z,4.80
2023-02-19T06:26:19.850Z,4.80
2023-02-19T06:28:49.378Z,4.80
2023-02-19T06:31:19.137Z,4.90
2023-02-19T06:33:50.600Z,4.90
2023-02-19T06:36:20.953Z,4.90
2023-02-19T06:38:49.210Z,4.80
2023-02-19T06:41:18.181Z,4.80
2023-02-19T06:43:46.659Z,4.90
2023-02-19T06:46:15.699Z,4.90
2023-02-19T06:48:45.121Z,4.90
2023-02-19T06:51:18.703Z,4.90
2023-02-19T06:53:47.131Z,4.90
2023-02-19T06:56:27.181Z,4.90
2023-02-19T06:58:56.673Z,4.90
2023-02-19T07:01:25.700Z,5.00
2023-02-19T07:03:54.127Z,5.10
2023-02-19T07:06:24.880Z,5.10
2023-02-19T07:08:54.262Z,5.10
2023-02-19T07:11:22.363Z,5.20
2023-02-19T07:13:56.714Z,5.20
2023-02-19T07:16:25.573Z,5.10
2023-02-19T07:18:54.071Z,5.00
2023-02-19T07:21:23.602Z,5.10
2023-02-19T07:23:52.039Z,5.10
2023-02-19T07:26:22.237Z,5.20
2023-02-19T07:28:52.487Z,5.20
2023-02-19T07:31:23.125Z,5.20
2023-02-19T07:33:52.260Z,5.30
2023-02-19T07:36:21.473Z,5.20
2023-02-19T07:38:55.388Z,5.40
2023-02-19T07:41:24.579Z,5.30
2023-02-19T07:43:53.365Z,5.30
2023-02-19T07:46:22.428Z,5.20
2023-02-19T07:48:50.524Z,5.20
2023-02-19T07:51:20.662Z,5.20
2023-02-19T07:53:51.744Z,5.30
2023-02-19T07:56:21.986Z,5.20
2023-02-19T07:58:50.482Z,5.40
2023-02-19T08:01:40.351Z,5.40
2023-02-19T08:04:08.188Z,5.40
2023-02-19T08:06:36.266Z,5.40
2023-02-19T08:09:05.822Z,5.40
2023-02-19T08:11:53.118Z,5.50
2023-02-19T08:14:21.856Z,5.40
2023-02-19T08:16:51.187Z,5.40
2023-02-19T08:19:20.036Z,5.60
2023-02-19T08:21:48.174Z,5.50
2023-02-19T08:24:16.280Z,5.60
2023-02-19T08:26:46.163Z,5.60
2023-02-19T08:29:14.595Z,5.80
2023-02-19T08:31:43.099Z,6.00
2023-02-19T08:34:11.318Z,5.90
2023-02-19T08:36:39.586Z,5.80
2023-02-19T08:39:08.221Z,5.90
2023-02-19T08:41:36.293Z,6.00
2023-02-19T08:44:05.930Z,6.00
2023-02-19T08:46:34.560Z,6.10
2023-02-19T08:49:02.757Z,6.60
2023-02-19T08:51:31.397Z,6.80
2023-02-19T08:53:59.878Z,6.70
2023-02-19T08:56:27.959Z,6.70
2023-02-19T08:58:56.085Z,6.40
2023-02-19T09:01:25.942Z,6.60
2023-02-19T09:03:54.983Z,6.60
2023-02-19T09:06:23.085Z,6.80
2023-02-19T09:08:51.191Z,7.30
2023-02-19T09:11:19.349Z,7.10
2023-02-19T09:13:47.807Z,7.40
2023-02-19T09:16:15.891Z,7.50
2023-02-19T09:18:45.874Z,7.70
2023-02-19T09:21:14.210Z,7.50
2023-02-19T09:23:42.352Z,7.70
2023-02-19T09:26:14.361Z,7.80
2023-02-19T09:28:43.143Z,7.90
2023-02-19T09:31:14.929Z,8.20
2023-02-19T09:33:48.607Z,8.00
2023-02-19T09:36:18.710Z,8.70
2023-02-19T09:38:47.032Z,9.00
2023-02-19T09:41:21.392Z,8.70
2023-02-19T09:43:49.718Z,8.50
2023-02-19T09:46:29.482Z,8.50
2023-02-19T09:49:05.342Z,9.10
2023-02-19T09:51:35.832Z,9.90
2023-02-19T09:54:07.912Z,9.20
2023-02-19T09:56:36.177Z,8.90
2023-02-19T09:59:04.989Z,9.10
2023-02-19T10:01:35.557Z,9.10
2023-02-19T10:04:05.848Z,8.30
2023-02-19T10:06:36.312Z,9.10
2023-02-19T10:09:18.030Z,9.40
2023-02-19T10:11:47.780Z,9.00
2023-02-19T10:14:20.386Z,9.90
2023-02-19T10:16:50.334Z,10.60
2023-02-19T10:19:19.802Z,10.40
2023-02-19T10:21:48.222Z,10.00
2023-02-19T10:24:22.450Z,10.40
2023-02-19T10:26:51.781Z,10.30
2023-02-19T10:29:21.667Z,9.40
2023-02-19T10:31:50.008Z,10.20
2023-02-19T10:34:24.098Z,10.60
2023-02-19T10:36:53.642Z,10.10
2023-02-19T10:39:42.318Z,9.80
2023-02-19T10:42:17.402Z,9.90
2023-02-19T10:44:48.262Z,9.90
2023-02-19T10:47:22.978Z,10.50
2023-02-19T10:49:54.052Z,10.30
2023-02-19T10:52:25.610Z,10.30
2023-02-19T10:54:57.201Z,10.50
2023-02-19T10:57:33.256Z,10.70
2023-02-19T11:00:04.066Z,10.70
2023-02-19T11:02:33.252Z,10.50
2023-02-19T11:05:17.393Z,10.80
2023-02-19T11:07:48.361Z,10.60
2023-02-19T11:10:27.785Z,11.60
2023-02-19T11:12:58.660Z,12.00
2023-02-19T11:15:30.078Z,11.90
2023-02-19T11:18:05.625Z,12.50
2023-02-19T11:20:35.654Z,12.30
2023-02-19T11:23:15.566Z,11.70
2023-02-19T11:25:47.554Z,11.10
2023-02-19T11:28:29.432Z,11.10
2023-02-19T11:31:14.006Z,11.10
2023-02-19T11:33:46.242Z,10.80
2023-02-19T11:36:30.052Z,11.10
2023-02-19T11:39:00.376Z,12.00
2023-02-19T11:41:46.614Z,11.40
2023-02-19T11:44:30.578Z,11.00
2023-02-19T11:47:18.092Z,10.90
2023-02-19T11:49:53.399Z,10.40
2023-02-19T11:52:34.012Z,10.90
2023-02-19T11:55:13.212Z,11.20
2023-02-19T11:57:44.528Z,11.50
2023-02-19T12:00:27.805Z,11.00
2023-02-19T12:03:23.055Z,11.10
2023-02-19T12:06:25.300Z,11.00
2023-02-19T12:09:22.785Z,11.00
2023-02-19T12:12:16.492Z,11.40
2023-02-19T12:15:11.584Z,11.70
2023-02-19T12:17:54.269Z,10.80
2023-02-19T12:20:32.207Z,10.90
2023-02-19T12:23:24.520Z,10.70
2023-02-19T12:26:03.020Z,11.00
2023-02-19T12:28:52.417Z,11.20
2023-02-19T12:31:41.952Z,11.00
2023-02-19T12:34:30.370Z,10.70
2023-02-19T12:37:10.828Z,10.70
2023-02-19T12:39:47.404Z,10.60
2023-02-19T12:42:29.444Z,10.70
2023-02-19T12:45:01.207Z,10.90
2023-02-19T12:47:34.165Z,10.80
2023-02-19T12:50:07.061Z,10.80
2023-02-19T12:52:40.949Z,10.60
2023-02-19T12:55:22.539Z,10.60
2023-02-19T12:57:53.031Z,10.40
2023-02-19T13:00:31.275Z,10.40
2023-02-19T13:03:04.421Z,10.30
2023-02-19T13:05:43.337Z,10.70
2023-02-19T13:08:17.162Z,10.60
2023-02-19T13:10:49.064Z,10.50
2023-02-19T13:13:24.860Z,10.70
2023-02-19T13:15:56.769Z,10.70
2023-02-19T13:18:31.720Z,10.80
2023-02-19T13:21:01.112Z,10.50
2023-02-19T13:23:50.741Z,10.10
2023-02-19T13:26:36.591Z,10.40
2023-02-19T13:29:20.253Z,10.20
2023-02-19T13:32:05.892Z,10.40
2023-02-19T13:34:47.779Z,10.30
2023-02-19T13:37:17.141Z,10.30
2023-02-19T13:39:50.086Z,10.40
2023-02-19T13:42:27.344Z,10.20
2023-02-19T13:44:58.562Z,9.90
2023-02-19T13:47:50.330Z,9.90
2023-02-19T13:50:23.931Z,10.00
2023-02-19T13:52:52.849Z,10.20
2023-02-19T13:55:53.321Z,10.30
2023-02-19T13:59:01.764Z,10.50
2023-02-19T14:02:13.441Z,10.50
2023-02-19T14:04:55.879Z,10.40
2023-02-19T14:08:02.906Z,10.20
2023-02-19T14:11:02.495Z,10.20
2023-02-19T14:14:11.361Z,10.10
2023-02-19T14:17:07.839Z,10.00
2023-02-19T14:19:53.100Z,10.10
2023-02-19T14:23:04.131Z,10.10
2023-02-19T14:25:45.738Z,9.90
2023-02-19T14:28:39.291Z,10.10
2023-02-19T14:31:22.355Z,10.00
2023-02-19T14:33:53.211Z,10.10
2023-02-19T14:36:39.818Z,10.00
2023-02-19T14:39:15.109Z,10.00
2023-02-19T14:41:46.951Z,9.80
2023-02-19T14:44:19.631Z,9.70
2023-02-19T14:46:53.484Z,9.60
2023-02-19T14:49:26.573Z,9.80
2023-02-19T14:52:00.978Z,9.80
2023-02-19T14:54:42.907Z,9.60
2023-02-19T14:57:18.208Z,9.50
2023-02-19T14:59:58.492Z,9.40
2023-02-19T15:02:28.404Z,9.60
2023-02-19T15:04:56.754Z,9.50
2023-02-19T15:07:29.450Z,9.50
2023-02-19T15:10:05.011Z,9.70
2023-02-19T15:12:36.950Z,9.60
2023-02-19T15:15:07.022Z,9.40
2023-02-19T15:17:37.117Z,9.20
2023-02-19T15:20:11.234Z,9.20
2023-02-19T15:22:41.849Z,9.40
2023-02-19T15:25:18.042Z,9.40
2023-02-19T15:27:46.317Z,9.20
2023-02-19T15:30:21.898Z,9.20
2023-02-19T15:32:54.489Z,9.10
2023-02-19T15:35:25.387Z,9.00
2023-02-19T15:37:56.621Z,9.00
2023-02-19T15:40:30.114Z,9.00
2023-02-19T15:43:00.389Z,8.80
2023-02-19T15:45:32.977Z,8.80
2023-02-19T15:48:05.812Z,8.90
2023-02-19T15:50:36.932Z,8.60
2023-02-19T15:53:10.284Z,8.60
2023-02-19T15:55:43.495Z,8.50
2023-02-19T15:58:22.342Z,8.80
2023-02-19T16:00:54.168Z,8.90
2023-02-19T16:03:25.421Z,8.90
2023-02-19T16:06:00.901Z,8.60
2023-02-19T16:08:33.197Z,8.60
2023-02-19T16:11:03.422Z,8.60
2023-02-19T16:13:33.936Z,8.50
2023-02-19T16:16:12.678Z,8.60
2023-02-19T16:18:46.710Z,8.60
2023-02-19T16:21:18.645Z,8.60
2023-02-19T16:23:50.928Z,8.50
2023-02-19T16:26:19.488Z,8.40
2023-02-19T16:28:52.504Z,8.30
2023-02-19T16:31:23.387Z,8.30
2023-02-19T16:33:52.967Z,8.20
2023-02-19T16:36:29.906Z,8.20
2023-02-19T16:39:20.341Z,8.30
2023-02-19T16:42:14.506Z,8.10
2023-02-19T16:44:43.745Z,8.10
2023-02-19T16:47:24.556Z,8.20
2023-02-19T16:49:53.608Z,8.00
2023-02-19T16:52:21.722Z,7.90
2023-02-19T16:54:51.444Z,7.90
2023-02-19T16:57:20.774Z,7.80
2023-02-19T16:59:49.283Z,7.70
2023-02-19T17:02:22.562Z,7.70
2023-02-19T17:04:51.834Z,7.60
2023-02-19T17:07:20.626Z,7.60
2023-02-19T17:09:50.445Z,7.40
2023-02-19T17:12:19.129Z,7.40
2023-02-19T17:14:47.272Z,7.10
2023-02-19T17:17:15.659Z,7.00
2023-02-19T17:19:43.744Z,7.10
2023-02-19T17:22:17.098Z,7.00
2023-02-19T17:24:46.076Z,7.00
2023-02-19T17:27:15.816Z,6.90
2023-02-19T17:29:44.035Z,7.00
2023-02-19T17:32:12.528Z,7.00
2023-02-19T17:34:41.127Z,7.00
2023-02-19T17:37:09.266Z,6.90
2023-02-19T17:39:37.774Z,6.90
2023-02-19T17:42:06.413Z,6.80
2023-02-19T17:44:36.038Z,6.90
2023-02-19T17:47:04.166Z,6.90
2023-02-19T17:49:33.114Z,6.80
2023-02-19T17:52:01.271Z,6.60
2023-02-19T17:54:29.380Z,6.50
2023-02-19T17:56:57.605Z,6.50
2023-02-19T17:59:26.075Z,6.50
2023-02-19T18:01:55.723Z,6.40
2023-02-19T18:04:24.211Z,6.50
2023-02-19T18:06:53.921Z,6.50
2023-02-19T18:09:23.300Z,6.40
2023-02-19T18:11:51.506Z,6.40
2023-02-19T18:14:19.936Z,6.40
2023-02-19T18:16:50.360Z,6.20
2023-02-19T18:19:20.161Z,6.20
2023-02-19T18:21:48.655Z,6.30
2023-02-19T18:24:16.817Z,6.20
2023-02-19T18:26:44.973Z,6.20
2023-02-19T18:29:13.269Z,6.10
2023-02-19T18:31:41.471Z,6.20
2023-02-19T18:34:20.115Z,6.20
2023-02-19T18:36:49.277Z,6.10
2023-02-19T18:39:17.795Z,6.00
2023-02-19T18:41:50.056Z,6.00
2023-02-19T18:44:20.245Z,6.10
2023-02-19T18:46:48.644Z,6.00
2023-02-19T18:49:17.458Z,6.00
2023-02-19T18:51:47.674Z,6.00
2023-02-19T18:54:15.802Z,5.90
2023-02-19T18:56:45.192Z,5.90
2023-02-19T18:59:14.060Z,5.90
2023-02-19T19:01:43.045Z,5.90
2023-02-19T19:04:11.320Z,5.80
2023-02-19T19:06:39.915Z,5.80
2023-02-19T19:09:09.938Z,5.80
2023-02-19T19:11:39.383Z,5.80
2023-02-19T19:14:07.960Z,5.80
2023-02-19T19:16:36.404Z,5.80
2023-02-19T19:19:05.137Z,5.80
2023-02-19T19:21:33.272Z,5.70
2023-02-19T19:24:01.783Z,5.70
2023-02-19T19:26:31.700Z,5.70
2023-02-19T19:29:00.224Z,5.70
2023-02-19T19:31:36.449Z,5.70
2023-02-19T19:34:05.651Z,5.70
2023-02-19T19:36:34.338Z,5.60
2023-02-19T19:39:03.048Z,5.60
2023-02-19T19:41:32.847Z,5.70
2023-02-19T19:44:05.060Z,5.70
2023-02-19T19:46:33.675Z,5.70
2023-02-19T19:49:02.489Z,5.70
2023-02-19T19:51:34.272Z,5.60
2023-02-19T19:54:04.615Z,5.60
2023-02-19T19:56:34.722Z,5.60
2023-02-19T19:59:02.999Z,5.70
2023-02-19T20:01:31.766Z,5.70
2023-02-19T20:04:00.249Z,5.70
2023-02-19T20:06:31.067Z,5.70
2023-02-19T20:09:00.344Z,5.70
2023-02-19T20:11:28.910Z,5.60
2023-02-19T20:13:58.707Z,5.70
2023-02-19T20:16:28.356Z,5.60
2023-02-19T20:18:56.535Z,5.60
2023-02-19T20:21:24.662Z,5.60
2023-02-19T20:23:53.049Z,5.70
2023-02-19T20:26:25.738Z,5.60
2023-02-19T20:28:54.618Z,5.60
2023-02-19T20:31:25.202Z,5.60
2023-02-19T20:33:53.975Z,5.60
2023-02-19T20:36:22.630Z,5.60
2023-02-19T20:38:51.187Z,5.60
2023-02-19T20:41:19.810Z,5.70
2023-02-19T20:43:48.112Z,5.70
2023-02-19T20:46:16.386Z,5.60
2023-02-19T20:48:46.196Z,5.60
2023-02-19T20:51:14.325Z,5.60
2023-02-19T20:53:43.950Z,5.60
2023-02-19T20:56:12.787Z,5.60
2023-02-19T20:58:43.719Z,5.70
2023-02-19T21:01:12.757Z,5.60
2023-02-19T21:03:41.100Z,5.60
2023-02-19T21:06:11.011Z,5.50
2023-02-19T21:08:39.742Z,5.50
2023-02-19T21:11:07.986Z,5.60
2023-02-19T21:13:36.559Z,5.60
2023-02-19T21:16:05.266Z,5.60
2023-02-19T21:18:33.390Z,5.50
2023-02-19T21:21:01.899Z,5.60
2023-02-19T21:23:31.510Z,5.60
2023-02-19T21:26:00.024Z,5.60
2023-02-19T21:28:28.321Z,5.60
2023-02-19T21:30:56.678Z,5.60
2023-02-19T21:33:24.790Z,5.50
2023-02-19T21:35:52.964Z,5.50
2023-02-19T21:38:21.073Z,5.50
2023-02-19T21:40:50.968Z,5.50
2023-02-19T21:43:19.137Z,5.50
2023-02-19T21:45:47.689Z,5.50
2023-02-19T21:48:17.197Z,5.50
2023-02-19T21:50:45.942Z,5.50
2023-02-19T21:53:14.838Z,5.50
2023-02-19T21:55:57.549Z,5.40
2023-02-19T21:58:28.364Z,5.40
2023-02-19T22:00:58.107Z,5.40
2023-02-19T22:03:27.423Z,5.40
2023-02-19T22:05:56.024Z,5.30
2023-02-19T22:08:24.202Z,5.40
2023-02-19T22:10:52.615Z,5.40
2023-02-19T22:13:21.018Z,5.40
2023-02-19T22:15:50.482Z,5.40
2023-02-19T22:18:18.609Z,5.40
2023-02-19T22:20:46.804Z,5.40
2023-02-19T22:23:15.268Z,5.40
2023-02-19T22:25:43.360Z,5.40
2023-02-19T22:28:11.470Z,5.50
2023-02-19T22:30:41.356Z,5.40
2023-02-19T22:33:11.481Z,5.40
2023-02-19T22:35:39.991Z,5.40
2023-02-19T22:38:08.143Z,5.40
2023-02-19T22:40:36.227Z,5.40
2023-02-19T22:43:04.675Z,5.50
2023-02-19T22:45:32.769Z,5.50
2023-02-19T22:48:01.260Z,5.50
2023-02-19T22:50:30.848Z,5.50
2023-02-19T22:52:59.579Z,5.50
2023-02-19T22:55:27.933Z,5.60
2023-02-19T22:57:56.493Z,5.50
2023-02-19T23:00:24.715Z,5.50
2023-02-19T23:02:52.883Z,5.50
2023-02-19T23:05:22.668Z,5.60
2023-02-19T23:07:52.220Z,5.50
2023-02-19T23:10:20.386Z,5.50
2023-02-19T23:12:48.546Z,5.60
2023-02-19T23:15:16.821Z,5.50
2023-02-19T23:17:45.036Z,5.50
2023-02-19T23:20:13.880Z,5.60
2023-02-19T23:22:42.121Z,5.50
2023-02-19T23:25:11.589Z,5.60
2023-02-19T23:27:39.989Z,5.60
2023-02-19T23:30:09.040Z,5.60
2023-02-19T23:32:37.161Z,5.60
2023-02-19T23:35:05.480Z,5.70
2023-02-19T23:37:34.029Z,5.60
2023-02-19T23:40:02.136Z,5.70
2023-02-19T23:42:31.949Z,5.80
2023-02-19T23:45:00.485Z,5.70
2023-02-19T23:47:30.578Z,5.70
2023-02-19T23:49:58.857Z,5.70
2023-02-19T23:52:27.075Z,5.70
2023-02-19T23:54:57.225Z,5.70
2023-02-19T23:57:25.325Z,5.70
2023-02-19T23:59:55.236Z,5.70
